Terminal Aerodrome Forecast
Issued by NWS Cleveland, OH

Home | Current Version | Previous Version | Graphics & Text | Print | Product List | Glossary On
Versions: 1 2 3 4 5 6 7 8 9 10 11 12 13 14
000
FTUS41 KCLE 171740
TAFMFD
TAF
KMFD 171740Z 1718/1818 27010G20KT P6SM VCSH OVC035
     FM172200 28008KT P6SM BKN035
     FM180300 27006KT P6SM SKC
     FM181100 19005KT P6SM SKC
     FM181700 16007KT P6SM SKC=

USA.gov is the U.S. government's official web portal to all federal, state and local government web resources and services.